createdAt,value
2023-01-23T00:00:19.974Z,2.40
2023-01-23T00:02:48.880Z,2.40
2023-01-23T00:05:17.757Z,2.40
2023-01-23T00:07:46.601Z,2.40
2023-01-23T00:10:17.281Z,2.40
2023-01-23T00:12:49.419Z,2.40
2023-01-23T00:15:18.612Z,2.40
2023-01-23T00:17:48.502Z,2.30
2023-01-23T00:20:17.766Z,2.30
2023-01-23T00:22:46.884Z,2.30
2023-01-23T00:25:17.247Z,2.30
2023-01-23T00:27:45.962Z,2.30
2023-01-23T00:30:16.313Z,2.30
2023-01-23T00:32:45.041Z,2.30
2023-01-23T00:35:14.073Z,2.40
2023-01-23T00:37:42.916Z,2.30
2023-01-23T00:40:13.600Z,2.30
2023-01-23T00:42:43.810Z,2.40
2023-01-23T00:45:13.668Z,2.40
2023-01-23T00:47:42.530Z,2.40
2023-01-23T00:50:12.988Z,2.40
2023-01-23T00:52:41.877Z,2.50
2023-01-23T00:55:11.969Z,2.50
2023-01-23T00:57:42.235Z,2.40
2023-01-23T01:00:12.875Z,2.40
2023-01-23T01:02:41.707Z,2.40
2023-01-23T01:05:11.158Z,2.40
2023-01-23T01:07:39.939Z,2.40
2023-01-23T01:10:09.936Z,2.30
2023-01-23T01:12:39.030Z,2.30
2023-01-23T01:15:12.675Z,2.30
2023-01-23T01:17:42.112Z,2.30
2023-01-23T01:20:12.800Z,2.30
2023-01-23T01:22:41.581Z,2.30
2023-01-23T01:25:11.294Z,2.40
2023-01-23T01:27:40.044Z,2.30
2023-01-23T01:30:12.032Z,2.30
2023-01-23T01:32:42.865Z,2.40
2023-01-23T01:35:12.748Z,2.40
2023-01-23T01:37:43.292Z,2.40
2023-01-23T01:40:16.934Z,2.50
2023-01-23T01:42:48.555Z,2.50
2023-01-23T01:46:15.752Z,2.50
2023-01-23T01:48:52.176Z,2.60
2023-01-23T01:51:28.081Z,2.60
2023-01-23T01:54:07.152Z,2.60
2023-01-23T01:56:42.616Z,2.70
2023-01-23T01:59:13.173Z,2.70
2023-01-23T02:01:46.084Z,2.70
2023-01-23T02:04:16.912Z,2.70
2023-01-23T02:06:45.952Z,2.60
2023-01-23T02:09:24.653Z,2.60
2023-01-23T02:11:54.310Z,2.60
2023-01-23T02:14:25.859Z,2.60
2023-01-23T02:17:00.087Z,2.60
2023-01-23T02:19:54.898Z,2.70
2023-01-23T02:22:41.899Z,2.70
2023-01-23T02:25:23.870Z,2.70
2023-01-23T02:27:54.169Z,2.70
2023-01-23T02:30:23.498Z,2.70
2023-01-23T02:32:52.235Z,2.70
2023-01-23T02:35:28.165Z,2.70
2023-01-23T02:38:02.734Z,2.80
2023-01-23T02:40:37.655Z,2.80
2023-01-23T02:43:12.121Z,2.80
2023-01-23T02:45:41.119Z,2.90
2023-01-23T02:48:10.205Z,2.90
2023-01-23T02:50:39.733Z,3.00
2023-01-23T02:53:08.570Z,3.10
2023-01-23T02:55:39.466Z,3.20
2023-01-23T02:58:26.788Z,3.30
2023-01-23T03:00:55.613Z,3.40
2023-01-23T03:03:24.459Z,3.40
2023-01-23T03:05:54.391Z,3.40
2023-01-23T03:08:23.401Z,3.40
2023-01-23T03:10:52.110Z,3.40
2023-01-23T03:13:22.255Z,3.30
2023-01-23T03:15:53.743Z,3.30
2023-01-23T03:18:22.497Z,3.30
2023-01-23T03:20:51.517Z,3.20
2023-01-23T03:23:20.376Z,3.20
2023-01-23T03:25:49.909Z,3.20
2023-01-23T03:28:32.393Z,3.20
2023-01-23T03:31:02.583Z,3.20
2023-01-23T03:33:31.327Z,3.20
2023-01-23T03:36:01.220Z,3.10
2023-01-23T03:38:29.945Z,3.10
2023-01-23T03:41:16.245Z,3.10
2023-01-23T03:43:45.101Z,3.10
2023-01-23T03:46:15.542Z,3.10
2023-01-23T03:48:44.311Z,3.10
2023-01-23T03:51:13.104Z,3.10
2023-01-23T03:53:42.662Z,3.00
2023-01-23T03:56:11.737Z,2.90
2023-01-23T03:58:40.572Z,2.90
2023-01-23T04:01:10.963Z,2.90
2023-01-23T04:03:41.151Z,2.90
2023-01-23T04:06:10.080Z,2.90
2023-01-23T04:08:38.817Z,2.80
2023-01-23T04:11:10.436Z,2.80
2023-01-23T04:13:40.289Z,2.70
2023-01-23T04:16:09.652Z,2.70
2023-01-23T04:18:38.504Z,2.70
2023-01-23T04:21:08.788Z,2.60
2023-01-23T04:23:38.062Z,2.60
2023-01-23T04:26:06.986Z,2.60
2023-01-23T04:28:35.847Z,2.60
2023-01-23T04:31:04.959Z,2.60
2023-01-23T04:33:33.883Z,2.50
2023-01-23T04:36:06.323Z,2.50
2023-01-23T04:38:36.761Z,2.40
2023-01-23T04:41:06.135Z,2.40
2023-01-23T04:43:35.959Z,2.30
2023-01-23T04:46:05.021Z,2.30
2023-01-23T04:48:33.780Z,2.30
2023-01-23T04:51:02.600Z,2.20
2023-01-23T04:53:31.422Z,2.20
2023-01-23T04:56:02.005Z,2.20
2023-01-23T04:58:30.888Z,2.20
2023-01-23T05:01:04.401Z,2.20
2023-01-23T05:03:34.935Z,2.20
2023-01-23T05:06:03.862Z,2.20
2023-01-23T05:08:32.699Z,2.20
2023-01-23T05:11:02.901Z,2.20
2023-01-23T05:13:31.679Z,2.20
2023-01-23T05:16:00.487Z,2.20
2023-01-23T05:18:29.296Z,2.20
2023-01-23T05:20:58.067Z,2.10
2023-01-23T05:23:27.067Z,2.10
2023-01-23T05:25:55.826Z,2.10
2023-01-23T05:28:25.998Z,2.10
2023-01-23T05:30:54.895Z,2.10
2023-01-23T05:33:23.850Z,2.10
2023-01-23T05:35:52.561Z,2.10
2023-01-23T05:38:21.591Z,2.10
2023-01-23T05:40:50.954Z,2.10
2023-01-23T05:43:22.505Z,2.10
2023-01-23T05:45:52.726Z,2.10
2023-01-23T05:48:22.026Z,2.20
2023-01-23T05:50:50.776Z,2.30
2023-01-23T05:53:19.787Z,2.30
2023-01-23T05:55:49.880Z,2.40
2023-01-23T05:58:18.722Z,2.50
2023-01-23T06:00:47.472Z,2.50
2023-01-23T06:03:17.755Z,2.60
2023-01-23T06:05:46.562Z,2.70
2023-01-23T06:08:15.304Z,2.70
2023-01-23T06:10:44.119Z,2.70
2023-01-23T06:13:13.188Z,2.70
2023-01-23T06:15:42.117Z,2.70
2023-01-23T06:18:11.023Z,2.80
2023-01-23T06:20:41.145Z,2.80
2023-01-23T06:23:09.905Z,2.80
2023-01-23T06:25:38.927Z,2.80
2023-01-23T06:28:07.936Z,2.80
2023-01-23T06:30:38.168Z,2.80
2023-01-23T06:33:07.015Z,2.80
2023-01-23T06:35:35.813Z,2.90
2023-01-23T06:38:06.052Z,2.90
2023-01-23T06:40:34.831Z,2.90
2023-01-23T06:43:03.712Z,2.90
2023-01-23T06:45:32.829Z,2.90
2023-01-23T06:48:01.738Z,2.80
2023-01-23T06:50:30.493Z,2.90
2023-01-23T06:52:59.268Z,2.90
2023-01-23T06:55:29.449Z,2.90
2023-01-23T06:57:58.233Z,3.00
2023-01-23T07:00:28.251Z,3.00
2023-01-23T07:02:59.300Z,3.00
2023-01-23T07:05:28.317Z,3.00
2023-01-23T07:07:57.399Z,3.00
2023-01-23T07:10:26.737Z,3.00
2023-01-23T07:12:57.027Z,3.00
2023-01-23T07:15:27.629Z,3.00
2023-01-23T07:17:56.385Z,3.00
2023-01-23T07:20:27.746Z,3.00
2023-01-23T07:22:56.908Z,3.00
2023-01-23T07:25:27.300Z,3.00
2023-01-23T07:27:57.545Z,3.00
2023-01-23T07:30:27.020Z,3.00
2023-01-23T07:32:56.409Z,2.90
2023-01-23T07:35:26.538Z,3.00
2023-01-23T07:37:55.553Z,2.90
2023-01-23T07:40:24.461Z,2.90
2023-01-23T07:42:53.409Z,2.90
2023-01-23T07:45:23.681Z,2.90
2023-01-23T07:47:52.618Z,2.90
2023-01-23T07:50:21.807Z,3.00
2023-01-23T07:52:50.709Z,3.00
2023-01-23T07:55:19.709Z,2.90
2023-01-23T07:57:48.777Z,2.80
2023-01-23T08:00:19.227Z,2.90
2023-01-23T08:02:50.180Z,2.90
2023-01-23T08:05:19.174Z,2.80
2023-01-23T08:07:47.964Z,2.90
2023-01-23T08:10:17.217Z,2.80
2023-01-23T08:12:46.128Z,2.90
2023-01-23T08:15:15.092Z,2.90
2023-01-23T08:17:43.943Z,2.80
2023-01-23T08:20:14.753Z,2.80
2023-01-23T08:22:45.226Z,2.90
2023-01-23T08:25:14.135Z,2.90
2023-01-23T08:27:42.946Z,3.00
2023-01-23T08:30:14.043Z,2.90
2023-01-23T08:32:42.804Z,2.90
2023-01-23T08:35:13.331Z,3.00
2023-01-23T08:37:42.419Z,3.00
2023-01-23T08:40:13.305Z,3.10
2023-01-23T08:42:42.210Z,3.10
2023-01-23T08:45:12.200Z,3.10
2023-01-23T08:47:41.055Z,3.20
2023-01-23T08:50:13.572Z,3.20
2023-01-23T08:52:42.340Z,3.20
2023-01-23T08:55:12.973Z,3.30
2023-01-23T08:57:41.966Z,3.40
2023-01-23T09:00:13.128Z,3.40
2023-01-23T09:02:42.394Z,3.40
2023-01-23T09:05:11.778Z,3.40
2023-01-23T09:07:42.069Z,3.50
2023-01-23T09:10:12.799Z,3.50
2023-01-23T09:12:42.897Z,3.50
2023-01-23T09:15:12.678Z,3.60
2023-01-23T09:17:41.448Z,3.60
2023-01-23T09:20:12.466Z,3.60
2023-01-23T09:22:42.731Z,3.70
2023-01-23T09:25:12.968Z,3.70
2023-01-23T09:27:41.800Z,3.80
2023-01-23T09:30:12.410Z,3.90
2023-01-23T09:32:41.203Z,3.90
2023-01-23T09:35:11.641Z,3.90
2023-01-23T09:37:59.261Z,3.90
2023-01-23T09:40:32.972Z,3.90
2023-01-23T09:43:13.526Z,3.80
2023-01-23T09:45:48.485Z,3.90
2023-01-23T09:48:29.193Z,4.00
2023-01-23T09:51:05.818Z,4.00
2023-01-23T09:53:40.846Z,4.10
2023-01-23T09:56:23.779Z,4.20
2023-01-23T09:59:03.412Z,4.20
2023-01-23T10:01:35.836Z,4.20
2023-01-23T10:04:06.449Z,4.30
2023-01-23T10:07:07.009Z,4.30
2023-01-23T10:10:00.410Z,4.20
2023-01-23T10:12:45.551Z,4.10
2023-01-23T10:15:37.665Z,4.20
2023-01-23T10:18:24.752Z,4.10
2023-01-23T10:21:13.743Z,4.20
2023-01-23T10:23:58.826Z,4.30
2023-01-23T10:26:35.918Z,4.30
2023-01-23T10:29:15.896Z,4.30
2023-01-23T10:31:51.106Z,4.30
2023-01-23T10:34:26.378Z,4.40
2023-01-23T10:37:13.156Z,4.30
2023-01-23T10:39:51.258Z,4.30
2023-01-23T10:42:24.924Z,4.30
2023-01-23T10:44:54.069Z,4.30
2023-01-23T10:47:33.667Z,4.30
2023-01-23T10:50:04.759Z,4.40
2023-01-23T10:52:37.963Z,4.40
2023-01-23T10:55:28.500Z,4.40
2023-01-23T10:58:03.365Z,4.40
2023-01-23T11:00:37.983Z,4.50
2023-01-23T11:03:31.263Z,4.60
2023-01-23T11:06:06.981Z,4.70
2023-01-23T11:08:38.953Z,4.80
2023-01-23T11:11:25.847Z,4.90
2023-01-23T11:14:09.542Z,4.90
2023-01-23T11:16:38.956Z,5.00
2023-01-23T11:19:24.410Z,5.10
2023-01-23T11:21:57.846Z,5.10
2023-01-23T11:24:41.202Z,5.00
2023-01-23T11:27:24.428Z,5.00
2023-01-23T11:30:28.434Z,5.00
2023-01-23T11:33:03.079Z,5.00
2023-01-23T11:35:57.752Z,5.10
2023-01-23T11:38:33.283Z,4.90
2023-01-23T11:41:05.290Z,4.80
2023-01-23T11:43:34.315Z,4.80
2023-01-23T11:46:32.630Z,4.80
2023-01-23T11:49:43.353Z,4.60
2023-01-23T11:52:33.384Z,4.70
2023-01-23T11:55:29.986Z,4.70
2023-01-23T11:58:15.779Z,4.70
2023-01-23T12:00:53.155Z,4.70
2023-01-23T12:04:23.782Z,4.70
2023-01-23T12:07:15.145Z,4.70
2023-01-23T12:09:58.716Z,4.70
2023-01-23T12:12:53.807Z,4.70
2023-01-23T12:15:37.509Z,4.70
2023-01-23T12:18:27.867Z,4.80
2023-01-23T12:21:06.871Z,4.80
2023-01-23T12:23:59.057Z,4.80
2023-01-23T12:26:31.134Z,4.80
2023-01-23T12:29:46.500Z,4.80
2023-01-23T12:32:43.528Z,4.90
2023-01-23T12:35:32.839Z,4.90
2023-01-23T12:38:21.323Z,4.90
2023-01-23T12:40:56.825Z,4.90
2023-01-23T12:43:41.617Z,4.90
2023-01-23T12:46:16.003Z,4.90
2023-01-23T12:48:54.404Z,4.90
2023-01-23T12:51:31.515Z,5.00
2023-01-23T12:54:08.281Z,5.10
2023-01-23T12:56:41.967Z,5.20
2023-01-23T12:59:21.933Z,5.30
2023-01-23T13:02:05.765Z,5.30
2023-01-23T13:04:55.869Z,5.40
2023-01-23T13:07:50.138Z,5.40
2023-01-23T13:11:01.247Z,5.50
2023-01-23T13:13:30.592Z,5.50
2023-01-23T13:16:13.855Z,5.50
2023-01-23T13:19:11.534Z,5.50
2023-01-23T13:21:58.080Z,5.50
2023-01-23T13:25:03.433Z,5.50
2023-01-23T13:27:50.613Z,5.60
2023-01-23T13:30:45.107Z,5.60
2023-01-23T13:33:58.670Z,5.70
2023-01-23T13:36:34.797Z,5.60
2023-01-23T13:39:27.203Z,5.60
2023-01-23T13:42:46.282Z,5.50
2023-01-23T13:45:34.675Z,5.50
2023-01-23T14:20:39.747Z,4.90
2023-01-23T14:23:22.131Z,4.90
2023-01-23T14:25:51.149Z,4.90
2023-01-23T14:28:20.553Z,4.90
2023-01-23T14:31:04.360Z,4.90
2023-01-23T14:33:43.437Z,4.90
2023-01-23T14:36:18.538Z,4.90
2023-01-23T14:38:49.629Z,4.80
2023-01-23T14:41:20.903Z,4.80
2023-01-23T14:43:58.202Z,4.80
2023-01-23T14:46:38.057Z,4.80
2023-01-23T14:49:10.442Z,4.80
2023-01-23T14:51:39.225Z,4.70
2023-01-23T14:54:22.875Z,4.70
2023-01-23T14:56:54.245Z,4.60
2023-01-23T14:59:29.996Z,4.60
2023-01-23T15:02:13.086Z,4.60
2023-01-23T15:04:45.152Z,4.50
2023-01-23T15:07:19.259Z,4.50
2023-01-23T15:09:47.991Z,4.40
2023-01-23T15:12:19.872Z,4.30
2023-01-23T15:14:55.636Z,4.30
2023-01-23T15:17:25.905Z,4.20
2023-01-23T15:19:56.529Z,4.20
2023-01-23T15:22:29.784Z,4.20
2023-01-23T15:24:59.000Z,4.10
2023-01-23T15:27:33.542Z,4.10
2023-01-23T15:30:37.864Z,4.10
2023-01-23T15:33:27.608Z,4.10
2023-01-23T15:36:06.688Z,4.10
2023-01-23T15:38:36.895Z,4.00
2023-01-23T15:41:11.438Z,3.90
2023-01-23T15:43:40.213Z,3.90
2023-01-23T15:46:12.064Z,3.90
2023-01-23T15:48:42.252Z,3.90
2023-01-23T15:51:14.281Z,3.90
2023-01-23T15:53:43.049Z,3.80
2023-01-23T15:56:27.954Z,3.90
2023-01-23T15:58:56.834Z,3.80
2023-01-23T16:01:25.574Z,3.80
2023-01-23T16:03:55.873Z,3.80
2023-01-23T16:06:26.386Z,3.80
2023-01-23T16:09:05.196Z,3.70
2023-01-23T16:11:38.738Z,3.70
2023-01-23T16:14:07.620Z,3.70
2023-01-23T16:16:36.501Z,3.70
2023-01-23T16:19:06.788Z,3.70
2023-01-23T16:21:35.595Z,3.70
2023-01-23T16:24:05.857Z,3.70
2023-01-23T16:26:36.384Z,3.70
2023-01-23T16:29:13.545Z,3.80
2023-01-23T16:31:42.989Z,3.70
2023-01-23T16:34:13.270Z,3.70
2023-01-23T16:36:42.112Z,3.60
2023-01-23T16:39:20.156Z,3.60
2023-01-23T16:41:50.647Z,3.60
2023-01-23T16:44:22.222Z,3.60
2023-01-23T16:46:52.520Z,3.60
2023-01-23T16:49:22.759Z,3.50
2023-01-23T16:51:59.755Z,3.50
2023-01-23T16:54:28.669Z,3.50
2023-01-23T16:56:59.591Z,3.50
2023-01-23T16:59:36.878Z,3.40
2023-01-23T17:02:18.201Z,3.40
2023-01-23T17:04:48.463Z,3.40
2023-01-23T17:07:18.916Z,3.40
2023-01-23T17:09:49.296Z,3.40
2023-01-23T17:12:24.475Z,3.40
2023-01-23T17:14:53.579Z,3.40
2023-01-23T17:17:30.890Z,3.40
2023-01-23T17:20:04.171Z,3.40
2023-01-23T17:22:41.170Z,3.50
2023-01-23T17:25:17.155Z,3.40
2023-01-23T17:27:55.216Z,3.50
2023-01-23T17:30:29.539Z,3.50
2023-01-23T17:32:59.774Z,3.50
2023-01-23T17:35:37.509Z,3.50
2023-01-23T17:38:06.976Z,3.50
2023-01-23T17:40:35.683Z,3.50
2023-01-23T17:43:04.479Z,3.50
2023-01-23T17:45:34.704Z,3.50
2023-01-23T17:48:03.644Z,3.50
2023-01-23T17:50:33.999Z,3.50
2023-01-23T17:53:02.731Z,3.50
2023-01-23T17:55:32.788Z,3.60
2023-01-23T17:58:01.701Z,3.60
2023-01-23T18:00:30.466Z,3.50
2023-01-23T18:03:01.933Z,3.50
2023-01-23T18:05:32.184Z,3.50
2023-01-23T18:08:01.142Z,3.50
2023-01-23T18:10:30.274Z,3.50
2023-01-23T18:13:14.739Z,3.50
2023-01-23T18:15:57.737Z,3.40
2023-01-23T18:18:32.712Z,3.40
2023-01-23T18:21:05.460Z,3.40
2023-01-23T18:23:37.352Z,3.40
2023-01-23T18:26:30.210Z,3.40
2023-01-23T18:29:23.618Z,3.40
2023-01-23T18:32:25.839Z,3.40
2023-01-23T18:35:07.047Z,3.50
2023-01-23T18:37:50.156Z,3.40
2023-01-23T18:40:26.052Z,3.40
2023-01-23T18:43:04.145Z,3.50
2023-01-23T18:45:34.159Z,3.50
2023-01-23T18:48:04.680Z,3.50
2023-01-23T18:50:37.256Z,3.50
2023-01-23T18:53:24.634Z,3.50
2023-01-23T18:56:14.234Z,3.50
2023-01-23T18:59:10.435Z,3.50
2023-01-23T19:01:52.438Z,3.50
2023-01-23T19:04:34.645Z,3.40
2023-01-23T19:07:04.506Z,3.40
2023-01-23T19:09:40.045Z,3.40
2023-01-23T19:12:25.613Z,3.40
2023-01-23T19:15:22.163Z,3.40
2023-01-23T19:18:08.472Z,3.40
2023-01-23T19:20:48.591Z,3.40
2023-01-23T19:23:33.811Z,3.50
2023-01-23T19:26:05.238Z,3.40
2023-01-23T19:28:35.263Z,3.40
2023-01-23T19:31:08.412Z,3.40
2023-01-23T19:33:37.904Z,3.40
2023-01-23T19:36:11.398Z,3.30
2023-01-23T19:38:40.797Z,3.30
2023-01-23T19:41:20.868Z,3.30
2023-01-23T19:43:54.643Z,3.20
2023-01-23T19:46:29.531Z,3.20
2023-01-23T19:48:59.285Z,3.20
2023-01-23T19:51:29.212Z,3.10
2023-01-23T19:53:58.309Z,3.10
2023-01-23T19:56:29.259Z,3.10
2023-01-23T19:58:58.206Z,3.00
2023-01-23T20:01:35.364Z,2.90
2023-01-23T20:04:04.800Z,3.10
2023-01-23T20:06:34.600Z,3.10
2023-01-23T20:09:03.693Z,3.20
2023-01-23T20:11:35.073Z,3.30
2023-01-23T20:14:04.307Z,3.40
2023-01-23T20:16:33.113Z,3.40
2023-01-23T20:19:02.281Z,3.30
2023-01-23T20:21:31.336Z,3.30
2023-01-23T20:24:00.211Z,3.20
2023-01-23T20:26:29.472Z,3.20
2023-01-23T20:28:59.904Z,3.10
2023-01-23T20:31:29.026Z,3.10
2023-01-23T20:33:58.110Z,3.10
2023-01-23T20:36:26.980Z,3.10
2023-01-23T20:38:57.840Z,3.10
2023-01-23T20:41:26.794Z,3.00
2023-01-23T20:43:56.076Z,3.00
2023-01-23T20:46:27.308Z,3.00
2023-01-23T20:48:57.548Z,2.90
2023-01-23T20:51:27.309Z,2.90
2023-01-23T20:53:56.464Z,3.00
2023-01-23T20:56:27.900Z,3.00
2023-01-23T20:59:16.039Z,2.90
2023-01-23T21:02:04.845Z,2.90
2023-01-23T21:04:36.237Z,2.90
2023-01-23T21:07:06.078Z,2.80
2023-01-23T21:09:34.857Z,2.80
2023-01-23T21:12:03.648Z,2.80
2023-01-23T21:14:32.461Z,2.80
2023-01-23T21:17:05.105Z,2.80
2023-01-23T21:19:34.498Z,2.80
2023-01-23T21:22:03.380Z,2.70
2023-01-23T21:24:34.467Z,2.70
2023-01-23T21:27:04.682Z,2.70
2023-01-23T21:29:34.463Z,2.70
2023-01-23T21:32:04.722Z,2.70
2023-01-23T21:34:33.455Z,2.60
2023-01-23T21:37:03.383Z,2.70
2023-01-23T21:39:32.118Z,2.70
2023-01-23T21:42:00.877Z,2.70
2023-01-23T21:44:29.694Z,2.60
2023-01-23T21:46:58.433Z,2.60
2023-01-23T21:49:30.347Z,2.60
2023-01-23T21:51:59.088Z,2.60
2023-01-23T21:54:27.896Z,2.60
2023-01-23T21:56:56.730Z,2.70
2023-01-23T21:59:25.437Z,2.60
2023-01-23T22:01:53.420Z,2.60
2023-01-23T22:04:23.320Z,2.60
2023-01-23T22:06:58.692Z,2.60
2023-01-23T22:09:27.811Z,2.60
2023-01-23T22:11:57.263Z,2.60
2023-01-23T22:14:25.997Z,2.70
2023-01-23T22:16:54.832Z,2.70
2023-01-23T22:19:25.808Z,2.70
2023-01-23T22:21:57.279Z,2.70
2023-01-23T22:24:26.543Z,2.70
2023-01-23T22:26:55.389Z,2.70
2023-01-23T22:29:24.123Z,2.60
2023-01-23T22:31:53.265Z,2.60
2023-01-23T22:34:22.227Z,2.60
2023-01-23T22:36:50.953Z,2.60
2023-01-23T22:39:21.128Z,2.60
2023-01-23T22:41:51.247Z,2.50
2023-01-23T22:44:20.064Z,2.50
2023-01-23T22:46:51.584Z,2.60
2023-01-23T22:49:20.876Z,2.60
2023-01-23T22:51:51.540Z,2.60
2023-01-23T22:54:21.881Z,2.60
2023-01-23T22:56:50.661Z,2.60
2023-01-23T22:59:19.361Z,2.60
2023-01-23T23:01:48.154Z,2.60
2023-01-23T23:04:16.950Z,2.60
2023-01-23T23:06:45.634Z,2.50
2023-01-23T23:09:14.817Z,2.50
2023-01-23T23:11:47.499Z,2.50
2023-01-23T23:14:16.220Z,2.60
2023-01-23T23:16:44.911Z,2.60
2023-01-23T23:19:13.720Z,2.60
2023-01-23T23:21:42.511Z,2.60
2023-01-23T23:24:14.847Z,2.60
2023-01-23T23:26:45.085Z,2.60
2023-01-23T23:29:13.862Z,2.60
2023-01-23T23:31:43.359Z,2.60
2023-01-23T23:34:12.149Z,2.50
2023-01-23T23:36:41.182Z,2.50
2023-01-23T23:39:10.090Z,2.50
2023-01-23T23:41:38.917Z,2.50
2023-01-23T23:44:09.137Z,2.50
2023-01-23T23:46:38.270Z,2.50
2023-01-23T23:49:07.462Z,2.50
2023-01-23T23:51:36.335Z,2.50
2023-01-23T23:54:05.222Z,2.50
2023-01-23T23:56:34.003Z,2.50
2023-01-23T23:59:02.721Z,2.50
